sensor_id;sensor_type;location;lat;lon;timestamp;P1;durP1;ratioP1;P2;durP2;ratioP2
30723;SDS011;17473;52.286;20.930;2023-04-29T00:01:25;17.80;;;9.60;;
30723;SDS011;17473;52.286;20.930;2023-04-29T00:03:52;13.57;;;9.17;;
30723;SDS011;17473;52.286;20.930;2023-04-29T00:06:20;14.07;;;9.33;;
30723;SDS011;17473;52.286;20.930;2023-04-29T00:08:48;17.97;;;9.17;;
30723;SDS011;17473;52.286;20.930;2023-04-29T00:11:15;18.90;;;10.80;;
30723;SDS011;17473;52.286;20.930;2023-04-29T00:13:42;16.40;;;9.17;;
30723;SDS011;17473;52.286;20.930;2023-04-29T00:16:09;13.97;;;8.90;;
30723;SDS011;17473;52.286;20.930;2023-04-29T00:18:36;17.03;;;9.77;;
30723;SDS011;17473;52.286;20.930;2023-04-29T00:21:03;16.93;;;9.37;;
30723;SDS011;17473;52.286;20.930;2023-04-29T00:23:32;16.70;;;9.70;;
30723;SDS011;17473;52.286;20.930;2023-04-29T00:25:59;15.37;;;10.33;;
30723;SDS011;17473;52.286;20.930;2023-04-29T00:28:26;16.83;;;9.67;;
30723;SDS011;17473;52.286;20.930;2023-04-29T00:30:53;20.67;;;10.47;;
30723;SDS011;17473;52.286;20.930;2023-04-29T00:33:21;19.03;;;10.10;;
30723;SDS011;17473;52.286;20.930;2023-04-29T00:35:48;15.70;;;10.07;;
30723;SDS011;17473;52.286;20.930;2023-04-29T00:38:16;19.07;;;11.07;;
30723;SDS011;17473;52.286;20.930;2023-04-29T00:40:43;15.90;;;9.93;;
30723;SDS011;17473;52.286;20.930;2023-04-29T00:43:10;20.23;;;10.57;;
30723;SDS011;17473;52.286;20.930;2023-04-29T00:45:38;19.37;;;10.17;;
30723;SDS011;17473;52.286;20.930;2023-04-29T00:48:05;15.10;;;9.40;;
30723;SDS011;17473;52.286;20.930;2023-04-29T00:50:33;16.00;;;10.27;;
30723;SDS011;17473;52.286;20.930;2023-04-29T00:53:02;17.10;;;10.00;;
30723;SDS011;17473;52.286;20.930;2023-04-29T00:55:29;17.37;;;10.10;;
30723;SDS011;17473;52.286;20.930;2023-04-29T00:57:58;23.23;;;10.63;;
30723;SDS011;17473;52.286;20.930;2023-04-29T01:00:25;18.13;;;10.13;;
30723;SDS011;17473;52.286;20.930;2023-04-29T01:02:53;16.90;;;10.63;;
30723;SDS011;17473;52.286;20.930;2023-04-29T01:05:22;18.67;;;10.93;;
30723;SDS011;17473;52.286;20.930;2023-04-29T01:10:54;16.33;;;10.20;;
30723;SDS011;17473;52.286;20.930;2023-04-29T01:13:50;15.83;;;10.00;;
30723;SDS011;17473;52.286;20.930;2023-04-29T01:19:16;16.50;;;9.20;;
30723;SDS011;17473;52.286;20.930;2023-04-29T01:22:13;18.87;;;9.57;;
30723;SDS011;17473;52.286;20.930;2023-04-29T01:24:42;18.37;;;9.83;;
30723;SDS011;17473;52.286;20.930;2023-04-29T01:27:56;18.23;;;9.57;;
30723;SDS011;17473;52.286;20.930;2023-04-29T01:42:09;17.27;;;9.90;;
30723;SDS011;17473;52.286;20.930;2023-04-29T01:44:42;16.40;;;10.03;;
30723;SDS011;17473;52.286;20.930;2023-04-29T01:47:12;16.53;;;9.30;;
30723;SDS011;17473;52.286;20.930;2023-04-29T01:49:39;18.03;;;9.80;;
30723;SDS011;17473;52.286;20.930;2023-04-29T01:52:06;12.40;;;8.73;;
30723;SDS011;17473;52.286;20.930;2023-04-29T01:54:33;19.13;;;8.63;;
30723;SDS011;17473;52.286;20.930;2023-04-29T01:57:01;18.27;;;9.77;;
30723;SDS011;17473;52.286;20.930;2023-04-29T01:59:29;18.03;;;9.10;;
30723;SDS011;17473;52.286;20.930;2023-04-29T02:01:57;14.20;;;8.80;;
30723;SDS011;17473;52.286;20.930;2023-04-29T02:04:24;11.00;;;8.10;;
30723;SDS011;17473;52.286;20.930;2023-04-29T02:06:53;18.20;;;9.53;;
30723;SDS011;17473;52.286;20.930;2023-04-29T02:09:20;14.27;;;9.00;;
30723;SDS011;17473;52.286;20.930;2023-04-29T02:11:47;13.57;;;9.33;;
30723;SDS011;17473;52.286;20.930;2023-04-29T02:14:14;15.03;;;8.90;;
30723;SDS011;17473;52.286;20.930;2023-04-29T02:16:44;14.70;;;9.37;;
30723;SDS011;17473;52.286;20.930;2023-04-29T02:23:21;15.73;;;8.70;;
30723;SDS011;17473;52.286;20.930;2023-04-29T02:25:48;15.43;;;8.93;;
30723;SDS011;17473;52.286;20.930;2023-04-29T02:28:15;14.23;;;8.53;;
30723;SDS011;17473;52.286;20.930;2023-04-29T02:30:43;15.70;;;8.57;;
30723;SDS011;17473;52.286;20.930;2023-04-29T02:33:10;16.40;;;8.17;;
30723;SDS011;17473;52.286;20.930;2023-04-29T02:35:37;16.87;;;8.63;;
30723;SDS011;17473;52.286;20.930;2023-04-29T02:38:04;12.83;;;7.70;;
30723;SDS011;17473;52.286;20.930;2023-04-29T02:40:31;14.03;;;8.10;;
30723;SDS011;17473;52.286;20.930;2023-04-29T02:42:58;14.47;;;8.37;;
30723;SDS011;17473;52.286;20.930;2023-04-29T02:45:26;11.23;;;7.87;;
30723;SDS011;17473;52.286;20.930;2023-04-29T02:47:53;15.40;;;8.57;;
30723;SDS011;17473;52.286;20.930;2023-04-29T02:50:20;13.57;;;8.33;;
30723;SDS011;17473;52.286;20.930;2023-04-29T02:52:47;15.30;;;8.57;;
30723;SDS011;17473;52.286;20.930;2023-04-29T02:55:14;12.83;;;8.47;;
30723;SDS011;17473;52.286;20.930;2023-04-29T02:57:42;12.87;;;7.83;;
30723;SDS011;17473;52.286;20.930;2023-04-29T03:00:09;16.90;;;8.43;;
30723;SDS011;17473;52.286;20.930;2023-04-29T03:02:37;15.30;;;8.50;;
30723;SDS011;17473;52.286;20.930;2023-04-29T03:05:04;14.77;;;8.03;;
30723;SDS011;17473;52.286;20.930;2023-04-29T03:07:31;14.70;;;8.30;;
30723;SDS011;17473;52.286;20.930;2023-04-29T03:09:59;18.17;;;8.03;;
30723;SDS011;17473;52.286;20.930;2023-04-29T03:12:26;12.20;;;8.40;;
30723;SDS011;17473;52.286;20.930;2023-04-29T03:14:53;15.43;;;8.60;;
30723;SDS011;17473;52.286;20.930;2023-04-29T03:17:20;17.93;;;8.27;;
30723;SDS011;17473;52.286;20.930;2023-04-29T03:19:47;14.77;;;7.37;;
30723;SDS011;17473;52.286;20.930;2023-04-29T03:22:16;12.57;;;8.00;;
30723;SDS011;17473;52.286;20.930;2023-04-29T03:24:43;11.93;;;7.30;;
30723;SDS011;17473;52.286;20.930;2023-04-29T03:27:10;14.07;;;7.77;;
30723;SDS011;17473;52.286;20.930;2023-04-29T03:29:37;12.37;;;7.43;;
30723;SDS011;17473;52.286;20.930;2023-04-29T03:32:04;15.40;;;8.20;;
30723;SDS011;17473;52.286;20.930;2023-04-29T03:34:32;19.53;;;8.47;;
30723;SDS011;17473;52.286;20.930;2023-04-29T03:36:59;13.30;;;8.73;;
30723;SDS011;17473;52.286;20.930;2023-04-29T03:39:26;13.73;;;8.17;;
30723;SDS011;17473;52.286;20.930;2023-04-29T03:41:58;13.97;;;7.53;;
30723;SDS011;17473;52.286;20.930;2023-04-29T03:44:25;11.30;;;7.50;;
30723;SDS011;17473;52.286;20.930;2023-04-29T03:46:54;14.07;;;8.30;;
30723;SDS011;17473;52.286;20.930;2023-04-29T03:49:21;13.37;;;7.83;;
30723;SDS011;17473;52.286;20.930;2023-04-29T03:51:48;15.20;;;7.77;;
30723;SDS011;17473;52.286;20.930;2023-04-29T03:54:16;17.70;;;9.27;;
30723;SDS011;17473;52.286;20.930;2023-04-29T03:56:43;12.77;;;7.53;;
30723;SDS011;17473;52.286;20.930;2023-04-29T03:59:10;21.30;;;8.10;;
30723;SDS011;17473;52.286;20.930;2023-04-29T04:01:37;20.30;;;7.40;;
30723;SDS011;17473;52.286;20.930;2023-04-29T04:04:04;14.70;;;7.43;;
30723;SDS011;17473;52.286;20.930;2023-04-29T04:06:31;12.20;;;7.53;;
30723;SDS011;17473;52.286;20.930;2023-04-29T04:08:58;12.63;;;6.67;;
30723;SDS011;17473;52.286;20.930;2023-04-29T04:11:25;13.47;;;7.53;;
30723;SDS011;17473;52.286;20.930;2023-04-29T04:13:52;14.10;;;6.97;;
30723;SDS011;17473;52.286;20.930;2023-04-29T04:16:19;12.17;;;7.30;;
30723;SDS011;17473;52.286;20.930;2023-04-29T04:18:47;16.13;;;7.83;;
30723;SDS011;17473;52.286;20.930;2023-04-29T04:21:14;10.00;;;6.70;;
30723;SDS011;17473;52.286;20.930;2023-04-29T04:23:41;12.43;;;7.40;;
30723;SDS011;17473;52.286;20.930;2023-04-29T04:26:09;14.17;;;7.10;;
30723;SDS011;17473;52.286;20.930;2023-04-29T04:28:36;15.50;;;6.97;;
30723;SDS011;17473;52.286;20.930;2023-04-29T04:31:03;11.97;;;6.60;;
30723;SDS011;17473;52.286;20.930;2023-04-29T04:33:31;12.98;;;6.70;;
30723;SDS011;17473;52.286;20.930;2023-04-29T04:35:59;13.55;;;6.70;;
30723;SDS011;17473;52.286;20.930;2023-04-29T04:38:26;11.35;;;6.18;;
30723;SDS011;17473;52.286;20.930;2023-04-29T04:40:53;10.98;;;7.32;;
30723;SDS011;17473;52.286;20.930;2023-04-29T04:43:20;9.57;;;6.20;;
30723;SDS011;17473;52.286;20.930;2023-04-29T04:45:48;9.25;;;6.18;;
30723;SDS011;17473;52.286;20.930;2023-04-29T04:48:15;12.18;;;6.43;;
30723;SDS011;17473;52.286;20.930;2023-04-29T04:50:42;12.02;;;6.25;;
30723;SDS011;17473;52.286;20.930;2023-04-29T04:53:09;12.68;;;6.28;;
30723;SDS011;17473;52.286;20.930;2023-04-29T04:55:36;10.50;;;6.43;;
30723;SDS011;17473;52.286;20.930;2023-04-29T04:58:03;10.90;;;6.25;;
30723;SDS011;17473;52.286;20.930;2023-04-29T05:00:30;7.63;;;6.07;;
30723;SDS011;17473;52.286;20.930;2023-04-29T05:02:57;10.30;;;6.45;;
30723;SDS011;17473;52.286;20.930;2023-04-29T05:05:24;11.65;;;6.07;;
30723;SDS011;17473;52.286;20.930;2023-04-29T05:07:52;11.68;;;6.63;;
30723;SDS011;17473;52.286;20.930;2023-04-29T05:10:19;16.20;;;6.72;;
30723;SDS011;17473;52.286;20.930;2023-04-29T05:12:46;14.07;;;6.10;;
30723;SDS011;17473;52.286;20.930;2023-04-29T05:15:13;9.35;;;6.03;;
30723;SDS011;17473;52.286;20.930;2023-04-29T05:17:41;11.02;;;6.53;;
30723;SDS011;17473;52.286;20.930;2023-04-29T05:20:09;11.07;;;6.28;;
30723;SDS011;17473;52.286;20.930;2023-04-29T05:22:36;8.25;;;5.65;;
30723;SDS011;17473;52.286;20.930;2023-04-29T05:25:03;13.00;;;5.82;;
30723;SDS011;17473;52.286;20.930;2023-04-29T05:27:31;8.20;;;5.80;;
30723;SDS011;17473;52.286;20.930;2023-04-29T05:29:58;15.45;;;6.22;;
30723;SDS011;17473;52.286;20.930;2023-04-29T05:32:25;10.13;;;5.78;;
30723;SDS011;17473;52.286;20.930;2023-04-29T05:34:52;10.30;;;6.47;;
30723;SDS011;17473;52.286;20.930;2023-04-29T05:37:19;9.45;;;5.22;;
30723;SDS011;17473;52.286;20.930;2023-04-29T05:39:46;13.50;;;5.75;;
30723;SDS011;17473;52.286;20.930;2023-04-29T05:42:13;16.48;;;6.40;;
30723;SDS011;17473;52.286;20.930;2023-04-29T05:44:40;8.93;;;5.78;;
30723;SDS011;17473;52.286;20.930;2023-04-29T05:47:07;10.55;;;5.95;;
30723;SDS011;17473;52.286;20.930;2023-04-29T05:49:35;7.32;;;5.13;;
30723;SDS011;17473;52.286;20.930;2023-04-29T05:52:02;11.10;;;5.78;;
30723;SDS011;17473;52.286;20.930;2023-04-29T05:54:32;9.52;;;5.88;;
30723;SDS011;17473;52.286;20.930;2023-04-29T05:57:00;10.45;;;5.57;;
30723;SDS011;17473;52.286;20.930;2023-04-29T05:59:30;9.10;;;5.38;;
30723;SDS011;17473;52.286;20.930;2023-04-29T06:01:58;11.52;;;5.80;;
30723;SDS011;17473;52.286;20.930;2023-04-29T06:04:26;14.00;;;5.32;;
30723;SDS011;17473;52.286;20.930;2023-04-29T06:06:54;10.77;;;5.63;;
30723;SDS011;17473;52.286;20.930;2023-04-29T06:09:22;14.43;;;5.93;;
30723;SDS011;17473;52.286;20.930;2023-04-29T06:11:53;14.27;;;5.65;;
30723;SDS011;17473;52.286;20.930;2023-04-29T06:14:21;10.10;;;5.35;;
30723;SDS011;17473;52.286;20.930;2023-04-29T06:16:48;9.13;;;5.07;;
30723;SDS011;17473;52.286;20.930;2023-04-29T06:19:15;9.32;;;5.70;;
30723;SDS011;17473;52.286;20.930;2023-04-29T06:21:43;10.07;;;5.65;;
30723;SDS011;17473;52.286;20.930;2023-04-29T06:24:10;8.07;;;4.93;;
30723;SDS011;17473;52.286;20.930;2023-04-29T06:26:37;10.93;;;5.03;;
30723;SDS011;17473;52.286;20.930;2023-04-29T06:29:04;10.52;;;5.88;;
30723;SDS011;17473;52.286;20.930;2023-04-29T06:31:31;8.38;;;5.57;;
30723;SDS011;17473;52.286;20.930;2023-04-29T06:33:58;10.27;;;4.95;;
30723;SDS011;17473;52.286;20.930;2023-04-29T06:36:25;9.82;;;5.55;;
30723;SDS011;17473;52.286;20.930;2023-04-29T06:38:53;9.85;;;5.28;;
30723;SDS011;17473;52.286;20.930;2023-04-29T06:41:20;10.20;;;7.45;;
30723;SDS011;17473;52.286;20.930;2023-04-29T06:43:48;8.05;;;5.22;;
30723;SDS011;17473;52.286;20.930;2023-04-29T06:46:16;9.98;;;5.30;;
30723;SDS011;17473;52.286;20.930;2023-04-29T06:48:43;8.60;;;4.38;;
30723;SDS011;17473;52.286;20.930;2023-04-29T06:51:11;9.00;;;4.93;;
30723;SDS011;17473;52.286;20.930;2023-04-29T06:53:38;8.50;;;4.32;;
30723;SDS011;17473;52.286;20.930;2023-04-29T06:56:06;13.52;;;5.30;;
30723;SDS011;17473;52.286;20.930;2023-04-29T06:58:33;8.43;;;4.75;;
30723;SDS011;17473;52.286;20.930;2023-04-29T07:01:00;9.23;;;4.80;;
30723;SDS011;17473;52.286;20.930;2023-04-29T07:03:29;9.77;;;4.88;;
30723;SDS011;17473;52.286;20.930;2023-04-29T07:05:56;14.57;;;5.22;;
30723;SDS011;17473;52.286;20.930;2023-04-29T07:08:23;6.68;;;4.43;;
30723;SDS011;17473;52.286;20.930;2023-04-29T07:10:54;6.95;;;4.28;;
30723;SDS011;17473;52.286;20.930;2023-04-29T07:13:22;8.93;;;4.30;;
30723;SDS011;17473;52.286;20.930;2023-04-29T07:15:52;9.63;;;4.43;;
30723;SDS011;17473;52.286;20.930;2023-04-29T07:18:19;8.40;;;4.43;;
30723;SDS011;17473;52.286;20.930;2023-04-29T07:20:46;8.25;;;4.68;;
30723;SDS011;17473;52.286;20.930;2023-04-29T07:23:14;10.40;;;5.13;;
30723;SDS011;17473;52.286;20.930;2023-04-29T07:25:41;6.75;;;4.43;;
30723;SDS011;17473;52.286;20.930;2023-04-29T07:28:08;8.70;;;5.10;;
30723;SDS011;17473;52.286;20.930;2023-04-29T07:30:36;4.40;;;3.58;;
30723;SDS011;17473;52.286;20.930;2023-04-29T07:33:03;11.70;;;4.35;;
30723;SDS011;17473;52.286;20.930;2023-04-29T07:35:30;9.50;;;4.30;;
30723;SDS011;17473;52.286;20.930;2023-04-29T07:37:58;7.95;;;3.78;;
30723;SDS011;17473;52.286;20.930;2023-04-29T07:40:25;8.45;;;3.83;;
30723;SDS011;17473;52.286;20.930;2023-04-29T07:42:52;7.88;;;4.10;;
30723;SDS011;17473;52.286;20.930;2023-04-29T07:45:19;7.38;;;3.95;;
30723;SDS011;17473;52.286;20.930;2023-04-29T07:47:46;9.20;;;3.83;;
30723;SDS011;17473;52.286;20.930;2023-04-29T07:50:13;14.05;;;4.47;;
30723;SDS011;17473;52.286;20.930;2023-04-29T07:52:41;9.05;;;4.00;;
30723;SDS011;17473;52.286;20.930;2023-04-29T07:55:08;9.02;;;4.22;;
30723;SDS011;17473;52.286;20.930;2023-04-29T07:57:35;5.95;;;3.58;;
30723;SDS011;17473;52.286;20.930;2023-04-29T08:00:02;7.90;;;3.97;;
30723;SDS011;17473;52.286;20.930;2023-04-29T08:02:30;6.03;;;3.60;;
30723;SDS011;17473;52.286;20.930;2023-04-29T08:04:58;11.07;;;3.70;;
30723;SDS011;17473;52.286;20.930;2023-04-29T08:07:26;5.47;;;3.22;;
30723;SDS011;17473;52.286;20.930;2023-04-29T08:09:53;9.63;;;3.55;;
30723;SDS011;17473;52.286;20.930;2023-04-29T08:12:20;12.32;;;3.72;;
30723;SDS011;17473;52.286;20.930;2023-04-29T08:14:47;8.32;;;3.53;;
30723;SDS011;17473;52.286;20.930;2023-04-29T08:17:14;6.93;;;3.63;;
30723;SDS011;17473;52.286;20.930;2023-04-29T08:19:41;11.00;;;3.95;;
30723;SDS011;17473;52.286;20.930;2023-04-29T08:22:09;9.80;;;3.13;;
30723;SDS011;17473;52.286;20.930;2023-04-29T08:24:37;8.73;;;3.83;;
30723;SDS011;17473;52.286;20.930;2023-04-29T08:27:04;12.43;;;4.22;;
30723;SDS011;17473;52.286;20.930;2023-04-29T08:29:31;8.68;;;3.83;;
30723;SDS011;17473;52.286;20.930;2023-04-29T08:31:59;5.45;;;3.50;;
30723;SDS011;17473;52.286;20.930;2023-04-29T08:34:26;6.47;;;3.35;;
30723;SDS011;17473;52.286;20.930;2023-04-29T08:36:54;5.65;;;3.20;;
30723;SDS011;17473;52.286;20.930;2023-04-29T08:39:22;6.60;;;3.40;;
30723;SDS011;17473;52.286;20.930;2023-04-29T08:41:50;6.28;;;3.20;;
30723;SDS011;17473;52.286;20.930;2023-04-29T08:44:18;12.40;;;3.50;;
30723;SDS011;17473;52.286;20.930;2023-04-29T08:46:46;9.38;;;3.65;;
30723;SDS011;17473;52.286;20.930;2023-04-29T08:49:14;4.78;;;3.25;;
30723;SDS011;17473;52.286;20.930;2023-04-29T08:51:41;13.80;;;3.58;;
30723;SDS011;17473;52.286;20.930;2023-04-29T08:54:08;4.95;;;2.90;;
30723;SDS011;17473;52.286;20.930;2023-04-29T08:56:36;12.27;;;3.65;;
30723;SDS011;17473;52.286;20.930;2023-04-29T08:59:04;6.50;;;3.13;;
30723;SDS011;17473;52.286;20.930;2023-04-29T09:01:35;8.63;;;3.42;;
30723;SDS011;17473;52.286;20.930;2023-04-29T09:06:43;6.50;;;3.20;;
30723;SDS011;17473;52.286;20.930;2023-04-29T09:09:12;7.07;;;3.35;;
30723;SDS011;17473;52.286;20.930;2023-04-29T09:11:40;5.57;;;3.42;;
30723;SDS011;17473;52.286;20.930;2023-04-29T09:14:07;7.03;;;3.22;;
30723;SDS011;17473;52.286;20.930;2023-04-29T09:16:34;9.30;;;3.63;;
30723;SDS011;17473;52.286;20.930;2023-04-29T09:19:03;10.98;;;3.88;;
30723;SDS011;17473;52.286;20.930;2023-04-29T09:21:30;7.45;;;3.83;;
30723;SDS011;17473;52.286;20.930;2023-04-29T09:23:58;7.47;;;3.60;;
30723;SDS011;17473;52.286;20.930;2023-04-29T09:26:33;10.32;;;3.75;;
30723;SDS011;17473;52.286;20.930;2023-04-29T09:31:44;6.30;;;3.58;;
30723;SDS011;17473;52.286;20.930;2023-04-29T09:34:12;8.93;;;3.63;;
30723;SDS011;17473;52.286;20.930;2023-04-29T09:36:41;7.88;;;4.00;;
30723;SDS011;17473;52.286;20.930;2023-04-29T09:39:13;5.47;;;3.28;;
30723;SDS011;17473;52.286;20.930;2023-04-29T09:44:22;14.65;;;4.03;;
30723;SDS011;17473;52.286;20.930;2023-04-29T09:47:06;10.82;;;4.30;;
30723;SDS011;17473;52.286;20.930;2023-04-29T09:49:39;10.80;;;3.67;;
30723;SDS011;17473;52.286;20.930;2023-04-29T09:52:09;11.27;;;4.07;;
30723;SDS011;17473;52.286;20.930;2023-04-29T09:54:38;5.00;;;3.60;;
30723;SDS011;17473;52.286;20.930;2023-04-29T09:57:07;6.18;;;3.78;;
30723;SDS011;17473;52.286;20.930;2023-04-29T09:59:38;7.05;;;3.80;;
30723;SDS011;17473;52.286;20.930;2023-04-29T10:02:13;7.07;;;3.90;;
30723;SDS011;17473;52.286;20.930;2023-04-29T10:04:46;9.43;;;3.85;;
30723;SDS011;17473;52.286;20.930;2023-04-29T10:07:23;9.80;;;4.10;;
30723;SDS011;17473;52.286;20.930;2023-04-29T10:09:53;10.75;;;3.38;;
30723;SDS011;17473;52.286;20.930;2023-04-29T10:12:21;7.90;;;3.85;;
30723;SDS011;17473;52.286;20.930;2023-04-29T10:15:02;7.20;;;3.58;;
30723;SDS011;17473;52.286;20.930;2023-04-29T10:17:45;7.78;;;4.20;;
30723;SDS011;17473;52.286;20.930;2023-04-29T10:20:21;6.85;;;4.00;;
30723;SDS011;17473;52.286;20.930;2023-04-29T10:22:53;11.40;;;3.47;;
30723;SDS011;17473;52.286;20.930;2023-04-29T10:25:22;5.75;;;3.67;;
30723;SDS011;17473;52.286;20.930;2023-04-29T10:27:51;7.70;;;3.58;;
30723;SDS011;17473;52.286;20.930;2023-04-29T10:30:20;7.25;;;3.97;;
30723;SDS011;17473;52.286;20.930;2023-04-29T10:32:48;8.25;;;3.60;;
30723;SDS011;17473;52.286;20.930;2023-04-29T10:35:19;10.43;;;3.03;;
30723;SDS011;17473;52.286;20.930;2023-04-29T10:37:51;11.23;;;3.53;;
30723;SDS011;17473;52.286;20.930;2023-04-29T10:43:23;8.63;;;3.90;;
30723;SDS011;17473;52.286;20.930;2023-04-29T10:48:56;8.20;;;3.25;;
30723;SDS011;17473;52.286;20.930;2023-04-29T10:51:40;7.57;;;3.55;;
30723;SDS011;17473;52.286;20.930;2023-04-29T10:54:14;7.43;;;3.50;;
30723;SDS011;17473;52.286;20.930;2023-04-29T10:59:22;8.55;;;3.67;;
30723;SDS011;17473;52.286;20.930;2023-04-29T11:02:11;6.72;;;3.50;;
30723;SDS011;17473;52.286;20.930;2023-04-29T11:07:35;6.10;;;2.85;;
30723;SDS011;17473;52.286;20.930;2023-04-29T11:10:03;5.63;;;3.85;;
30723;SDS011;17473;52.286;20.930;2023-04-29T11:12:32;6.18;;;3.10;;
30723;SDS011;17473;52.286;20.930;2023-04-29T11:14:59;5.38;;;3.28;;
30723;SDS011;17473;52.286;20.930;2023-04-29T11:17:36;5.30;;;3.60;;
30723;SDS011;17473;52.286;20.930;2023-04-29T11:20:07;6.20;;;3.10;;
30723;SDS011;17473;52.286;20.930;2023-04-29T11:22:49;9.00;;;3.40;;
30723;SDS011;17473;52.286;20.930;2023-04-29T11:25:17;6.35;;;3.22;;
30723;SDS011;17473;52.286;20.930;2023-04-29T11:27:44;7.70;;;3.38;;
30723;SDS011;17473;52.286;20.930;2023-04-29T11:30:14;10.95;;;3.63;;
30723;SDS011;17473;52.286;20.930;2023-04-29T11:32:42;4.05;;;3.13;;
30723;SDS011;17473;52.286;20.930;2023-04-29T11:35:13;7.35;;;3.42;;
30723;SDS011;17473;52.286;20.930;2023-04-29T11:37:43;8.55;;;3.75;;
30723;SDS011;17473;52.286;20.930;2023-04-29T11:40:12;8.43;;;4.15;;
30723;SDS011;17473;52.286;20.930;2023-04-29T11:42:42;8.88;;;3.50;;
30723;SDS011;17473;52.286;20.930;2023-04-29T11:45:11;7.55;;;3.50;;
30723;SDS011;17473;52.286;20.930;2023-04-29T11:47:43;8.52;;;3.45;;
30723;SDS011;17473;52.286;20.930;2023-04-29T11:50:12;5.15;;;2.97;;
30723;SDS011;17473;52.286;20.930;2023-04-29T11:52:43;7.63;;;3.13;;
30723;SDS011;17473;52.286;20.930;2023-04-29T11:55:13;6.45;;;3.03;;
30723;SDS011;17473;52.286;20.930;2023-04-29T11:57:40;8.10;;;3.35;;
30723;SDS011;17473;52.286;20.930;2023-04-29T12:00:10;6.97;;;3.28;;
30723;SDS011;17473;52.286;20.930;2023-04-29T12:02:42;6.53;;;2.90;;
30723;SDS011;17473;52.286;20.930;2023-04-29T12:05:12;5.85;;;3.35;;
30723;SDS011;17473;52.286;20.930;2023-04-29T12:07:41;7.68;;;3.20;;
30723;SDS011;17473;52.286;20.930;2023-04-29T12:10:09;5.60;;;3.33;;
30723;SDS011;17473;52.286;20.930;2023-04-29T12:12:38;8.40;;;3.22;;
30723;SDS011;17473;52.286;20.930;2023-04-29T12:15:12;6.13;;;3.63;;
30723;SDS011;17473;52.286;20.930;2023-04-29T12:17:40;7.50;;;2.88;;
30723;SDS011;17473;52.286;20.930;2023-04-29T12:20:08;7.68;;;3.78;;
30723;SDS011;17473;52.286;20.930;2023-04-29T12:22:37;8.77;;;3.47;;
30723;SDS011;17473;52.286;20.930;2023-04-29T12:25:04;6.57;;;3.33;;
30723;SDS011;17473;52.286;20.930;2023-04-29T12:27:33;11.77;;;3.22;;
30723;SDS011;17473;52.286;20.930;2023-04-29T12:30:05;8.65;;;3.45;;
30723;SDS011;17473;52.286;20.930;2023-04-29T12:32:35;10.40;;;3.20;;
30723;SDS011;17473;52.286;20.930;2023-04-29T12:35:03;9.40;;;3.25;;
30723;SDS011;17473;52.286;20.930;2023-04-29T12:37:30;8.35;;;4.07;;
30723;SDS011;17473;52.286;20.930;2023-04-29T12:39:58;4.28;;;3.33;;
30723;SDS011;17473;52.286;20.930;2023-04-29T12:42:30;7.43;;;4.20;;
30723;SDS011;17473;52.286;20.930;2023-04-29T12:44:59;11.32;;;3.22;;
30723;SDS011;17473;52.286;20.930;2023-04-29T12:47:30;9.60;;;3.42;;
30723;SDS011;17473;52.286;20.930;2023-04-29T12:50:02;9.02;;;3.70;;
30723;SDS011;17473;52.286;20.930;2023-04-29T12:52:32;7.05;;;3.33;;
30723;SDS011;17473;52.286;20.930;2023-04-29T12:55:01;8.20;;;3.55;;
30723;SDS011;17473;52.286;20.930;2023-04-29T12:57:29;7.28;;;3.97;;
30723;SDS011;17473;52.286;20.930;2023-04-29T12:59:56;6.90;;;3.80;;
30723;SDS011;17473;52.286;20.930;2023-04-29T13:02:23;6.78;;;4.18;;
30723;SDS011;17473;52.286;20.930;2023-04-29T13:04:51;5.78;;;3.03;;
30723;SDS011;17473;52.286;20.930;2023-04-29T13:07:18;6.95;;;3.50;;
30723;SDS011;17473;52.286;20.930;2023-04-29T13:09:46;6.28;;;3.15;;
30723;SDS011;17473;52.286;20.930;2023-04-29T13:12:13;7.57;;;3.25;;
30723;SDS011;17473;52.286;20.930;2023-04-29T13:14:40;6.75;;;3.45;;
30723;SDS011;17473;52.286;20.930;2023-04-29T13:17:07;6.20;;;3.50;;
30723;SDS011;17473;52.286;20.930;2023-04-29T13:19:36;8.10;;;3.92;;
30723;SDS011;17473;52.286;20.930;2023-04-29T13:22:16;4.78;;;3.10;;
30723;SDS011;17473;52.286;20.930;2023-04-29T13:24:43;7.05;;;3.95;;
30723;SDS011;17473;52.286;20.930;2023-04-29T13:27:11;9.80;;;3.47;;
30723;SDS011;17473;52.286;20.930;2023-04-29T13:29:38;7.95;;;3.40;;
30723;SDS011;17473;52.286;20.930;2023-04-29T13:32:05;6.35;;;3.30;;
30723;SDS011;17473;52.286;20.930;2023-04-29T13:34:33;6.47;;;3.70;;
30723;SDS011;17473;52.286;20.930;2023-04-29T13:37:00;7.03;;;3.63;;
30723;SDS011;17473;52.286;20.930;2023-04-29T13:39:27;6.05;;;3.28;;
30723;SDS011;17473;52.286;20.930;2023-04-29T13:41:54;7.57;;;3.25;;
30723;SDS011;17473;52.286;20.930;2023-04-29T13:44:24;10.88;;;3.80;;
30723;SDS011;17473;52.286;20.930;2023-04-29T13:47:11;6.22;;;3.67;;
30723;SDS011;17473;52.286;20.930;2023-04-29T13:49:49;4.47;;;3.08;;
30723;SDS011;17473;52.286;20.930;2023-04-29T13:52:19;6.80;;;3.75;;
30723;SDS011;17473;52.286;20.930;2023-04-29T13:54:49;10.38;;;3.70;;
30723;SDS011;17473;52.286;20.930;2023-04-29T13:57:37;8.57;;;3.80;;
30723;SDS011;17473;52.286;20.930;2023-04-29T14:00:24;4.72;;;3.50;;
30723;SDS011;17473;52.286;20.930;2023-04-29T14:03:11;10.35;;;3.83;;
30723;SDS011;17473;52.286;20.930;2023-04-29T14:05:38;6.65;;;3.50;;
30723;SDS011;17473;52.286;20.930;2023-04-29T14:08:06;8.88;;;3.85;;
30723;SDS011;17473;52.286;20.930;2023-04-29T14:10:33;8.13;;;3.65;;
30723;SDS011;17473;52.286;20.930;2023-04-29T14:13:02;6.65;;;3.72;;
30723;SDS011;17473;52.286;20.930;2023-04-29T14:15:29;9.85;;;3.63;;
30723;SDS011;17473;52.286;20.930;2023-04-29T14:17:56;5.90;;;3.40;;
30723;SDS011;17473;52.286;20.930;2023-04-29T14:20:23;7.03;;;3.97;;
30723;SDS011;17473;52.286;20.930;2023-04-29T14:22:50;7.80;;;3.50;;
30723;SDS011;17473;52.286;20.930;2023-04-29T14:25:18;9.65;;;3.90;;
30723;SDS011;17473;52.286;20.930;2023-04-29T14:27:45;8.70;;;3.58;;
30723;SDS011;17473;52.286;20.930;2023-04-29T14:30:14;7.13;;;3.65;;
30723;SDS011;17473;52.286;20.930;2023-04-29T14:32:41;19.23;;;4.18;;
30723;SDS011;17473;52.286;20.930;2023-04-29T14:35:08;6.55;;;3.88;;
30723;SDS011;17473;52.286;20.930;2023-04-29T14:37:35;5.10;;;3.65;;
30723;SDS011;17473;52.286;20.930;2023-04-29T14:40:02;10.13;;;4.25;;
30723;SDS011;17473;52.286;20.930;2023-04-29T14:42:31;8.05;;;3.78;;
30723;SDS011;17473;52.286;20.930;2023-04-29T14:44:58;7.95;;;4.05;;
30723;SDS011;17473;52.286;20.930;2023-04-29T14:47:25;8.38;;;3.92;;
30723;SDS011;17473;52.286;20.930;2023-04-29T14:49:54;9.95;;;3.65;;
30723;SDS011;17473;52.286;20.930;2023-04-29T14:52:21;7.55;;;3.95;;
30723;SDS011;17473;52.286;20.930;2023-04-29T14:54:48;9.63;;;3.90;;
30723;SDS011;17473;52.286;20.930;2023-04-29T14:57:16;6.85;;;3.50;;
30723;SDS011;17473;52.286;20.930;2023-04-29T14:59:43;6.75;;;3.90;;
30723;SDS011;17473;52.286;20.930;2023-04-29T15:02:10;6.93;;;3.90;;
30723;SDS011;17473;52.286;20.930;2023-04-29T15:04:38;10.32;;;4.25;;
30723;SDS011;17473;52.286;20.930;2023-04-29T15:07:11;11.90;;;3.95;;
30723;SDS011;17473;52.286;20.930;2023-04-29T15:09:39;6.45;;;3.50;;
30723;SDS011;17473;52.286;20.930;2023-04-29T15:12:06;10.00;;;4.10;;
30723;SDS011;17473;52.286;20.930;2023-04-29T15:14:34;5.20;;;3.72;;
30723;SDS011;17473;52.286;20.930;2023-04-29T15:17:02;7.88;;;3.65;;
30723;SDS011;17473;52.286;20.930;2023-04-29T15:19:29;9.80;;;4.15;;